Time;durP1;ratioP1;P1;durP2;ratioP2;P2;SDS_P1;SDS_P2;PMS_P1;PMS_P2;Temp;Humidity;BMP_temperature;BMP_pressure;BME280_temperature;BME280_humidity;BME280_pressure;Samples;Min_cycle;Max_cycle;Signal;HPM_P1;HPM_P2
2021/12/09 00:16:53;;;;;;;9.77;2.92;;;;;;;;;;520048;26;20367;-85
2021/12/09 00:19:19;;;;;;;6.43;2.85;;;;;;;;;;4939371;28;20511;-89
2021/12/09 00:21:44;;;;;;;8.98;3.13;;;;;;;;;;4969741;28;20114;-89
2021/12/09 00:24:10;;;;;;;8.18;2.75;;;;;;;;;;4970075;28;20410;-88
2021/12/09 00:26:36;;;;;;;8.40;3.00;;;;;;;;;;4965947;28;20030;-87
2021/12/09 00:29:12;;;;;;;5.60;2.25;;;;;;;;;;4966652;28;20031;-87
2021/12/09 00:31:37;;;;;;;8.90;1.92;;;;;;;;;;4956465;28;20564;-87
2021/12/09 00:34:03;;;;;;;7.32;2.33;;;;;;;;;;4943189;28;20023;-88
2021/12/09 00:36:44;;;;;;;11.27;3.28;;;;;;;;;;4953733;28;20034;-89
2021/12/09 00:39:11;;;;;;;13.52;3.75;;;;;;;;;;4939403;28;20086;-87
2021/12/09 00:41:39;;;;;;;7.15;2.95;;;;;;;;;;4948788;28;20036;-88
2021/12/09 00:44:05;;;;;;;8.55;3.95;;;;;;;;;;4965194;28;20023;-87
2021/12/09 00:46:30;;;;;;;13.68;5.28;;;;;;;;;;4971499;28;20090;-87
2021/12/09 00:49:16;;;;;;;12.38;4.18;;;;;;;;;;4962688;28;20058;-88
2021/12/09 00:51:41;;;;;;;11.93;3.97;;;;;;;;;;4945076;28;20039;-87
2021/12/09 00:55:01;;;;;;;6.90;3.80;;;;;;;;;;4967545;28;20166;-87
2021/12/09 00:57:27;;;;;;;12.65;4.53;;;;;;;;;;4924861;28;20087;-89
2021/12/09 00:59:53;;;;;;;10.98;4.25;;;;;;;;;;4960918;28;20036;-89
2021/12/09 01:02:44;;;;;;;7.40;3.78;;;;;;;;;;4951678;29;20023;-88
2021/12/09 01:05:11;;;;;;;9.23;3.75;;;;;;;;;;4949148;29;20024;-89
2021/12/09 01:07:51;;;;;;;5.45;3.45;;;;;;;;;;4964817;29;20039;-89
2021/12/09 01:10:17;;;;;;;11.90;3.90;;;;;;;;;;4997849;28;20034;-89
2021/12/09 01:12:44;;;;;;;11.80;4.35;;;;;;;;;;4966288;28;20027;-89
2021/12/09 01:15:12;;;;;;;10.88;4.00;;;;;;;;;;4947135;29;20364;-89
2021/12/09 01:17:38;;;;;;;7.10;4.32;;;;;;;;;;4963155;28;20031;-89
2021/12/09 01:20:06;;;;;;;9.13;3.65;;;;;;;;;;4944921;29;20038;-89
2021/12/09 01:22:38;;;;;;;8.20;3.33;;;;;;;;;;4960649;23;20056;-87
2021/12/09 01:25:06;;;;;;;4.80;2.53;;;;;;;;;;4995427;28;20018;-89
2021/12/09 01:27:34;;;;;;;9.82;3.05;;;;;;;;;;4999040;28;20426;-88
2021/12/09 01:30:07;;;;;;;13.88;3.47;;;;;;;;;;5000893;28;20022;-87
2021/12/09 01:32:32;;;;;;;15.27;3.97;;;;;;;;;;4988308;28;20027;-86
2021/12/09 01:34:58;;;;;;;7.40;3.15;;;;;;;;;;4974146;28;20023;-88
2021/12/09 01:37:23;;;;;;;9.20;4.28;;;;;;;;;;4977927;28;20018;-88
2021/12/09 01:39:48;;;;;;;10.07;3.33;;;;;;;;;;4971204;28;20066;-88
2021/12/09 01:42:16;;;;;;;5.97;2.38;;;;;;;;;;4964047;28;20022;-88
2021/12/09 01:44:42;;;;;;;5.68;3.05;;;;;;;;;;4973099;28;20035;-88
2021/12/09 01:47:07;;;;;;;9.43;3.72;;;;;;;;;;4972843;28;20084;-88
2021/12/09 01:49:33;;;;;;;14.63;3.55;;;;;;;;;;4977479;28;20031;-86
2021/12/09 01:51:58;;;;;;;10.75;3.22;;;;;;;;;;4955461;28;20476;-88
2021/12/09 01:54:55;;;;;;;7.40;3.15;;;;;;;;;;4965580;28;20030;-87
2021/12/09 01:57:38;;;;;;;9.20;3.17;;;;;;;;;;4953842;28;20018;-88
2021/12/09 02:00:16;;;;;;;10.13;3.10;;;;;;;;;;4972323;28;20098;-87
2021/12/09 02:02:54;;;;;;;7.30;3.00;;;;;;;;;;4966325;28;20043;-85
2021/12/09 02:05:20;;;;;;;9.02;3.03;;;;;;;;;;4966959;28;20022;-85
2021/12/09 02:07:46;;;;;;;7.47;3.03;;;;;;;;;;4971677;28;20054;-85
2021/12/09 02:10:16;;;;;;;7.88;3.25;;;;;;;;;;4968827;28;20035;-88
2021/12/09 02:12:41;;;;;;;8.85;3.80;;;;;;;;;;4975530;28;20459;-87
2021/12/09 02:15:08;;;;;;;13.32;3.83;;;;;;;;;;4959088;28;21539;-87
2021/12/09 02:21:20;;;;;;;9.45;3.85;;;;;;;;;;4983245;28;20597;-86
2021/12/09 02:23:55;;;;;;;12.93;4.15;;;;;;;;;;4957915;28;20038;-82
2021/12/09 02:26:33;;;;;;;17.90;4.05;;;;;;;;;;4985234;28;20022;-86
2021/12/09 02:28:59;;;;;;;11.77;4.47;;;;;;;;;;4976677;28;20080;-87
2021/12/09 02:31:27;;;;;;;23.95;5.07;;;;;;;;;;4971091;28;20067;-86
2021/12/09 02:33:53;;;;;;;15.07;5.72;;;;;;;;;;4965991;28;20042;-86
2021/12/09 02:36:18;;;;;;;14.93;5.50;;;;;;;;;;4977734;28;20018;-87
2021/12/09 02:38:45;;;;;;;12.18;4.65;;;;;;;;;;4985968;28;20022;-88
2021/12/09 02:44:49;;;;;;;9.05;5.07;;;;;;;;;;4961461;28;20070;-87
2021/12/09 02:47:14;;;;;;;15.77;6.13;;;;;;;;;;4970136;28;20053;-87
2021/12/09 02:49:40;;;;;;;16.38;5.13;;;;;;;;;;4987318;28;20031;-85
2021/12/09 02:52:06;;;;;;;11.25;5.80;;;;;;;;;;4970974;28;20031;-86
2021/12/09 02:54:57;;;;;;;8.32;4.78;;;;;;;;;;4968289;28;20057;-87
2021/12/09 02:57:22;;;;;;;16.45;5.75;;;;;;;;;;4965552;28;20030;-87
2021/12/09 02:59:48;;;;;;;8.90;4.65;;;;;;;;;;4960137;28;20019;-85
2021/12/09 03:02:14;;;;;;;12.65;4.78;;;;;;;;;;4983660;28;20496;-86
2021/12/09 03:04:39;;;;;;;6.13;3.20;;;;;;;;;;4960482;28;20037;-86
2021/12/09 03:07:28;;;;;;;8.43;4.30;;;;;;;;;;4974356;28;20026;-87
2021/12/09 03:09:59;;;;;;;14.55;4.78;;;;;;;;;;4971156;28;20472;-87
2021/12/09 03:12:31;;;;;;;9.03;3.93;;;;;;;;;;4972380;28;20031;-84
2021/12/09 03:14:57;;;;;;;19.73;5.05;;;;;;;;;;4954993;28;20571;-84
2021/12/09 03:17:23;;;;;;;13.77;4.65;;;;;;;;;;4963447;28;20149;-87
2021/12/09 03:19:50;;;;;;;8.77;3.75;;;;;;;;;;4977443;28;20089;-87
2021/12/09 03:22:16;;;;;;;11.07;4.70;;;;;;;;;;4966523;28;20038;-86
2021/12/09 03:24:56;;;;;;;12.07;4.15;;;;;;;;;;4966098;28;20041;-87
2021/12/09 03:34:58;;;;;;;8.40;4.20;;;;;;;;;;4969053;28;20038;-88
2021/12/09 03:37:27;;;;;;;10.18;3.88;;;;;;;;;;4971890;28;20075;-88
2021/12/09 03:39:54;;;;;;;9.95;3.28;;;;;;;;;;4984599;28;20407;-86
2021/12/09 03:42:23;;;;;;;12.07;4.57;;;;;;;;;;4966199;28;20038;-87
2021/12/09 03:44:49;;;;;;;10.90;4.43;;;;;;;;;;4952425;28;20027;-87
2021/12/09 03:47:17;;;;;;;8.45;4.07;;;;;;;;;;4978753;28;20030;-89
2021/12/09 03:49:42;;;;;;;11.90;4.28;;;;;;;;;;4979572;28;20502;-89
2021/12/09 03:52:09;;;;;;;11.68;4.22;;;;;;;;;;4975289;28;20035;-87
2021/12/09 03:54:34;;;;;;;15.13;4.03;;;;;;;;;;4978344;28;20041;-88
2021/12/09 03:57:01;;;;;;;10.00;4.50;;;;;;;;;;4978126;28;20058;-85
2021/12/09 03:59:27;;;;;;;8.02;4.65;;;;;;;;;;4962682;28;20487;-85
2021/12/09 04:01:54;;;;;;;13.52;4.70;;;;;;;;;;4977279;28;20038;-85
2021/12/09 04:04:20;;;;;;;13.88;4.97;;;;;;;;;;4966964;28;20030;-85
2021/12/09 04:06:45;;;;;;;11.30;4.88;;;;;;;;;;4968491;28;20027;-85
2021/12/09 04:09:13;;;;;;;7.55;4.47;;;;;;;;;;4960314;28;20023;-85
2021/12/09 04:11:39;;;;;;;10.57;4.25;;;;;;;;;;4987884;28;20025;-87
2021/12/09 04:14:05;;;;;;;9.68;4.35;;;;;;;;;;4980461;28;20034;-84
2021/12/09 04:16:31;;;;;;;14.32;4.78;;;;;;;;;;4976123;28;20019;-85
2021/12/09 04:18:57;;;;;;;12.73;4.40;;;;;;;;;;4976512;28;20023;-86
2021/12/09 04:21:23;;;;;;;9.73;4.20;;;;;;;;;;4981238;28;20018;-86
2021/12/09 04:23:49;;;;;;;12.93;4.20;;;;;;;;;;4964682;28;20035;-85
2021/12/09 04:26:14;;;;;;;12.23;4.88;;;;;;;;;;4962211;28;20019;-86
2021/12/09 04:28:40;;;;;;;13.90;4.10;;;;;;;;;;4980468;28;20417;-86
2021/12/09 04:31:06;;;;;;;12.73;4.85;;;;;;;;;;4972499;28;20019;-86
2021/12/09 04:33:32;;;;;;;11.63;4.43;;;;;;;;;;4969610;28;20030;-84
2021/12/09 04:35:58;;;;;;;11.90;4.80;;;;;;;;;;4972799;28;20026;-87
2021/12/09 04:38:24;;;;;;;7.07;4.00;;;;;;;;;;4969580;28;20027;-86
2021/12/09 04:40:49;;;;;;;14.13;4.38;;;;;;;;;;4971745;28;20049;-87
2021/12/09 04:43:14;;;;;;;12.27;4.60;;;;;;;;;;4983304;28;20035;-86
2021/12/09 04:45:40;;;;;;;16.60;4.03;;;;;;;;;;4974324;28;20031;-86
2021/12/09 04:48:07;;;;;;;11.73;3.97;;;;;;;;;;4977128;28;20081;-87
2021/12/09 04:50:34;;;;;;;11.13;4.43;;;;;;;;;;4977095;28;20329;-86
2021/12/09 04:52:59;;;;;;;11.57;3.78;;;;;;;;;;4972380;28;20544;-86
2021/12/09 04:55:25;;;;;;;16.08;3.97;;;;;;;;;;4980374;28;20018;-86
2021/12/09 04:57:50;;;;;;;7.05;3.63;;;;;;;;;;4974291;28;20033;-86
2021/12/09 05:00:22;;;;;;;12.50;3.60;;;;;;;;;;4975506;28;20022;-86
2021/12/09 05:03:02;;;;;;;13.30;3.50;;;;;;;;;;4969623;28;20035;-87
2021/12/09 05:05:33;;;;;;;12.05;3.55;;;;;;;;;;4951478;28;20276;-86
2021/12/09 05:07:59;;;;;;;13.60;3.60;;;;;;;;;;4985015;28;20030;-87
2021/12/09 05:10:24;;;;;;;11.77;4.47;;;;;;;;;;4966515;28;20030;-88
2021/12/09 05:12:50;;;;;;;8.55;3.53;;;;;;;;;;4976399;28;20053;-85
2021/12/09 05:15:15;;;;;;;10.50;3.72;;;;;;;;;;4958237;28;20017;-86
2021/12/09 05:17:41;;;;;;;9.73;3.92;;;;;;;;;;4961850;28;20050;-88
2021/12/09 05:20:07;;;;;;;8.10;3.58;;;;;;;;;;4966010;28;20026;-87
2021/12/09 05:22:32;;;;;;;7.93;3.67;;;;;;;;;;4968602;28;20031;-85
2021/12/09 05:24:58;;;;;;;11.25;3.65;;;;;;;;;;4971970;28;20401;-87
2021/12/09 05:27:23;;;;;;;8.38;3.30;;;;;;;;;;4953708;28;20105;-86
2021/12/09 05:30:03;;;;;;;8.32;3.58;;;;;;;;;;4974424;28;20026;-85
2021/12/09 05:32:29;;;;;;;8.70;3.47;;;;;;;;;;4966822;28;20050;-86
2021/12/09 05:34:54;;;;;;;9.43;3.17;;;;;;;;;;4971683;28;20109;-88
2021/12/09 05:37:23;;;;;;;5.63;3.13;;;;;;;;;;4955829;28;20053;-87
2021/12/09 05:39:51;;;;;;;10.52;3.30;;;;;;;;;;4984300;28;20105;-88
2021/12/09 05:42:18;;;;;;;8.43;3.70;;;;;;;;;;4974033;28;20041;-86
2021/12/09 05:44:45;;;;;;;5.80;3.03;;;;;;;;;;4951225;28;20507;-83
2021/12/09 05:47:12;;;;;;;6.47;2.78;;;;;;;;;;4977817;28;20026;-83
2021/12/09 05:49:41;;;;;;;7.32;3.15;;;;;;;;;;4979080;28;20070;-84
2021/12/09 05:52:10;;;;;;;10.60;2.88;;;;;;;;;;4982171;28;20028;-85
2021/12/09 05:54:36;;;;;;;14.93;4.38;;;;;;;;;;4968870;28;20070;-85
2021/12/09 05:57:02;;;;;;;9.60;3.10;;;;;;;;;;4980088;28;20102;-86
2021/12/09 05:59:28;;;;;;;8.05;2.97;;;;;;;;;;4978063;28;20085;-87
2021/12/09 06:01:53;;;;;;;10.07;2.92;;;;;;;;;;4958675;28;20029;-86
2021/12/09 06:04:21;;;;;;;8.98;3.00;;;;;;;;;;4974053;28;20476;-86
2021/12/09 06:06:48;;;;;;;8.57;3.10;;;;;;;;;;4975756;28;20098;-85
2021/12/09 06:09:13;;;;;;;12.18;3.50;;;;;;;;;;4975774;28;20350;-86
2021/12/09 06:11:41;;;;;;;4.80;2.58;;;;;;;;;;4956918;28;20500;-87
2021/12/09 06:14:08;;;;;;;4.63;2.88;;;;;;;;;;4966822;28;20035;-86
2021/12/09 06:16:34;;;;;;;7.20;2.67;;;;;;;;;;4968572;28;20114;-85
2021/12/09 06:19:01;;;;;;;11.68;2.78;;;;;;;;;;4984783;28;20078;-85
2021/12/09 06:21:27;;;;;;;7.43;2.53;;;;;;;;;;4984831;28;20388;-85
2021/12/09 06:23:55;;;;;;;6.32;2.83;;;;;;;;;;4972274;28;20489;-85
2021/12/09 06:26:21;;;;;;;15.63;3.20;;;;;;;;;;4971549;28;20023;-85
2021/12/09 06:28:47;;;;;;;10.30;3.53;;;;;;;;;;4972753;28;20062;-86
2021/12/09 06:31:12;;;;;;;9.38;2.95;;;;;;;;;;4977328;28;20029;-85
2021/12/09 06:33:37;;;;;;;6.38;2.75;;;;;;;;;;4954871;28;20062;-85
2021/12/09 06:36:03;;;;;;;9.60;2.95;;;;;;;;;;4980947;28;20078;-84
2021/12/09 06:38:29;;;;;;;9.82;2.88;;;;;;;;;;4988212;28;20022;-85
2021/12/09 06:40:54;;;;;;;6.63;2.60;;;;;;;;;;4991191;28;20046;-85
2021/12/09 06:43:22;;;;;;;10.80;3.00;;;;;;;;;;4978493;28;20118;-85
2021/12/09 06:45:48;;;;;;;8.50;2.97;;;;;;;;;;4961941;28;20024;-86
2021/12/09 06:48:14;;;;;;;11.18;3.45;;;;;;;;;;4982395;28;20384;-85
2021/12/09 06:50:39;;;;;;;5.53;2.67;;;;;;;;;;5000354;28;20023;-85
2021/12/09 06:53:05;;;;;;;3.92;2.72;;;;;;;;;;4978798;28;20473;-85
2021/12/09 06:55:31;;;;;;;6.80;2.95;;;;;;;;;;4980662;28;20102;-85
2021/12/09 06:57:56;;;;;;;9.40;2.97;;;;;;;;;;4987766;28;20501;-84
2021/12/09 07:00:29;;;;;;;7.80;2.40;;;;;;;;;;4991792;28;20050;-85
2021/12/09 07:02:54;;;;;;;11.75;3.35;;;;;;;;;;4972293;28;20086;-85
2021/12/09 07:05:22;;;;;;;6.97;2.72;;;;;;;;;;4955711;28;20015;-85
2021/12/09 07:07:49;;;;;;;5.90;3.00;;;;;;;;;;4982741;28;20027;-85
2021/12/09 07:10:15;;;;;;;4.90;2.92;;;;;;;;;;4974447;28;20392;-85
2021/12/09 07:12:42;;;;;;;5.07;2.60;;;;;;;;;;4981139;28;20038;-84
2021/12/09 07:15:10;;;;;;;10.32;3.33;;;;;;;;;;4959565;28;20088;-85
2021/12/09 07:17:36;;;;;;;8.45;2.97;;;;;;;;;;4989689;28;20027;-84
2021/12/09 07:20:04;;;;;;;4.72;3.00;;;;;;;;;;4996810;28;20085;-84
2021/12/09 07:22:29;;;;;;;5.15;2.95;;;;;;;;;;4975970;28;20019;-85
2021/12/09 07:24:55;;;;;;;7.60;2.88;;;;;;;;;;4979543;23;20098;-86
2021/12/09 07:27:20;;;;;;;8.15;2.90;;;;;;;;;;4958969;28;20022;-85
2021/12/09 07:29:45;;;;;;;7.97;3.00;;;;;;;;;;4986049;28;20432;-86
2021/12/09 07:32:11;;;;;;;6.40;3.08;;;;;;;;;;4983628;28;20019;-84
2021/12/09 07:34:37;;;;;;;8.10;2.80;;;;;;;;;;4957785;28;20026;-85
2021/12/09 07:37:04;;;;;;;10.20;3.25;;;;;;;;;;4968042;28;20403;-84
2021/12/09 07:39:32;;;;;;;9.98;3.35;;;;;;;;;;4980448;28;20031;-85
2021/12/09 07:41:59;;;;;;;8.75;3.65;;;;;;;;;;4970830;28;20027;-87
2021/12/09 07:44:26;;;;;;;9.70;3.70;;;;;;;;;;4952422;28;20476;-85
2021/12/09 07:46:54;;;;;;;6.03;2.95;;;;;;;;;;4987270;28;20073;-83
2021/12/09 07:49:19;;;;;;;5.00;2.97;;;;;;;;;;4986497;28;20030;-84
2021/12/09 07:51:45;;;;;;;7.10;3.00;;;;;;;;;;4989701;28;20384;-85
2021/12/09 07:54:10;;;;;;;8.23;2.97;;;;;;;;;;4942616;29;20031;-88
2021/12/09 07:56:36;;;;;;;7.10;3.13;;;;;;;;;;4977075;28;20034;-85
2021/12/09 07:59:01;;;;;;;7.35;3.08;;;;;;;;;;4995340;28;20026;-86
2021/12/09 08:01:26;;;;;;;5.03;2.08;;;;;;;;;;4971278;28;20502;-85
2021/12/09 08:03:52;;;;;;;4.22;2.50;;;;;;;;;;4981515;28;20026;-85
2021/12/09 08:06:17;;;;;;;10.68;3.00;;;;;;;;;;4971693;28;20033;-84
2021/12/09 08:08:43;;;;;;;8.48;2.65;;;;;;;;;;4975361;28;20298;-86
2021/12/09 08:11:09;;;;;;;6.70;3.17;;;;;;;;;;4979506;28;20019;-84
2021/12/09 08:13:34;;;;;;;7.57;3.05;;;;;;;;;;4984727;28;20022;-84
2021/12/09 08:16:00;;;;;;;4.55;3.03;;;;;;;;;;4987718;28;20385;-84
2021/12/09 08:18:31;;;;;;;9.70;3.30;;;;;;;;;;4978461;28;20019;-85
2021/12/09 08:20:59;;;;;;;4.82;3.03;;;;;;;;;;4980146;28;20065;-86
2021/12/09 08:23:25;;;;;;;10.32;3.22;;;;;;;;;;4977858;28;20019;-86
2021/12/09 08:25:52;;;;;;;8.48;3.55;;;;;;;;;;4987392;28;20034;-87
2021/12/09 08:28:18;;;;;;;7.68;3.17;;;;;;;;;;4979193;28;20026;-85
2021/12/09 08:30:44;;;;;;;9.88;3.47;;;;;;;;;;4978944;28;20049;-87
2021/12/09 08:33:10;;;;;;;6.18;3.05;;;;;;;;;;4963490;28;20062;-85
2021/12/09 08:35:36;;;;;;;8.75;3.33;;;;;;;;;;4974968;28;20022;-87
2021/12/09 08:38:07;;;;;;;9.07;3.72;;;;;;;;;;4971679;28;20023;-85
2021/12/09 08:40:33;;;;;;;7.35;4.45;;;;;;;;;;4963908;28;20027;-85
2021/12/09 08:42:58;;;;;;;11.30;4.43;;;;;;;;;;4960462;28;20027;-87
2021/12/09 08:45:25;;;;;;;9.85;4.00;;;;;;;;;;4977093;28;20028;-87
2021/12/09 08:47:50;;;;;;;9.68;3.90;;;;;;;;;;4984584;28;20086;-87
2021/12/09 08:50:20;;;;;;;7.75;3.85;;;;;;;;;;4958248;28;20388;-86
2021/12/09 08:52:52;;;;;;;5.75;3.80;;;;;;;;;;4959789;28;20022;-86
2021/12/09 08:55:19;;;;;;;7.57;3.90;;;;;;;;;;4979968;28;20495;-87
2021/12/09 08:57:46;;;;;;;6.72;3.97;;;;;;;;;;4962494;28;20042;-88
2021/12/09 09:00:14;;;;;;;8.85;3.50;;;;;;;;;;4959828;28;20034;-85
2021/12/09 09:02:41;;;;;;;12.75;4.35;;;;;;;;;;4976945;28;20058;-87
2021/12/09 09:05:10;;;;;;;8.32;4.30;;;;;;;;;;4972947;28;20392;-87
2021/12/09 09:07:37;;;;;;;7.10;4.13;;;;;;;;;;4980090;28;20055;-87
2021/12/09 09:10:04;;;;;;;7.25;4.05;;;;;;;;;;4983217;28;20035;-88
2021/12/09 09:12:30;;;;;;;6.05;3.88;;;;;;;;;;4956393;28;20500;-87
2021/12/09 09:14:55;;;;;;;5.85;3.50;;;;;;;;;;4953410;28;20374;-88
2021/12/09 09:17:21;;;;;;;8.73;4.32;;;;;;;;;;4964297;28;20464;-88
2021/12/09 09:19:46;;;;;;;5.65;3.75;;;;;;;;;;4979481;28;20022;-85
2021/12/09 09:22:13;;;;;;;5.57;3.67;;;;;;;;;;4955361;28;20372;-87
2021/12/09 09:24:39;;;;;;;10.80;4.38;;;;;;;;;;4988297;28;20476;-87
2021/12/09 09:27:05;;;;;;;7.13;3.58;;;;;;;;;;4977793;28;20111;-88
2021/12/09 09:29:33;;;;;;;9.32;4.15;;;;;;;;;;4961193;28;20054;-87
2021/12/09 09:31:58;;;;;;;4.75;3.45;;;;;;;;;;4974916;28;20026;-86
2021/12/09 09:34:23;;;;;;;7.00;3.60;;;;;;;;;;4982469;28;20113;-85
2021/12/09 09:36:49;;;;;;;6.35;4.03;;;;;;;;;;4990267;28;20073;-87
2021/12/09 09:39:20;;;;;;;9.20;3.88;;;;;;;;;;4976941;28;20037;-89
2021/12/09 09:41:54;;;;;;;6.88;4.10;;;;;;;;;;4980309;28;20054;-86
2021/12/09 09:44:27;;;;;;;5.50;3.33;;;;;;;;;;4970214;28;20642;-86
2021/12/09 09:46:57;;;;;;;6.90;3.78;;;;;;;;;;4962466;28;20018;-87
2021/12/09 09:49:23;;;;;;;8.55;3.83;;;;;;;;;;4955400;28;20031;-85
2021/12/09 09:51:49;;;;;;;10.32;4.82;;;;;;;;;;4954872;28;20027;-88
2021/12/09 09:54:15;;;;;;;7.13;4.13;;;;;;;;;;4987811;28;20038;-87
2021/12/09 09:56:42;;;;;;;7.15;3.70;;;;;;;;;;4950996;28;20019;-83
2021/12/09 09:59:10;;;;;;;7.68;3.35;;;;;;;;;;4971604;28;20023;-84
2021/12/09 10:01:38;;;;;;;9.20;3.90;;;;;;;;;;4981277;28;20526;-86
2021/12/09 10:04:21;;;;;;;7.13;3.72;;;;;;;;;;4985788;28;20042;-85
2021/12/09 10:06:47;;;;;;;5.78;3.65;;;;;;;;;;4987485;28;20022;-85
2021/12/09 10:09:14;;;;;;;5.45;3.40;;;;;;;;;;4961663;28;20033;-83
2021/12/09 10:11:39;;;;;;;8.35;4.10;;;;;;;;;;4980337;28;20034;-86
2021/12/09 10:14:24;;;;;;;8.25;3.95;;;;;;;;;;4985608;28;20039;-86
2021/12/09 10:17:01;;;;;;;8.52;4.18;;;;;;;;;;4984851;28;20037;-84
2021/12/09 10:19:27;;;;;;;11.68;4.03;;;;;;;;;;4968634;28;20022;-84
2021/12/09 10:22:05;;;;;;;10.60;4.00;;;;;;;;;;4982207;28;20038;-85
2021/12/09 10:24:32;;;;;;;11.23;3.50;;;;;;;;;;4960795;28;20033;-86
2021/12/09 10:26:57;;;;;;;8.20;4.30;;;;;;;;;;4965293;28;20018;-85
2021/12/09 10:29:38;;;;;;;8.75;4.88;;;;;;;;;;4979263;28;20070;-84
2021/12/09 10:32:08;;;;;;;9.60;4.47;;;;;;;;;;4969095;28;20019;-85
2021/12/09 10:34:46;;;;;;;11.55;5.05;;;;;;;;;;4980118;28;20038;-84
2021/12/09 10:37:20;;;;;;;11.20;5.40;;;;;;;;;;4962475;28;20022;-85
2021/12/09 10:39:53;;;;;;;11.05;5.72;;;;;;;;;;4988747;28;20027;-84
2021/12/09 10:42:34;;;;;;;12.23;6.20;;;;;;;;;;4987697;28;20037;-85
2021/12/09 10:45:03;;;;;;;14.43;5.93;;;;;;;;;;4973554;28;20118;-86
2021/12/09 10:48:00;;;;;;;17.92;6.15;;;;;;;;;;4980401;28;20030;-87
2021/12/09 10:53:51;;;;;;;11.13;6.50;;;;;;;;;;4980566;28;20026;-86
2021/12/09 10:55:56;;;;;;;10.65;6.05;;;;;;;;;;4964529;28;20035;-87
2021/12/09 10:58:29;;;;;;;11.88;6.50;;;;;;;;;;4959772;28;20409;-86
2021/12/09 11:00:57;;;;;;;13.65;7.15;;;;;;;;;;4976913;28;20034;-88
2021/12/09 11:03:29;;;;;;;14.80;7.30;;;;;;;;;;4977209;28;20388;-85
2021/12/09 11:06:07;;;;;;;13.38;6.88;;;;;;;;;;4974488;28;20602;-83
2021/12/09 11:08:48;;;;;;;15.15;7.30;;;;;;;;;;4980259;28;20050;-87
2021/12/09 11:11:24;;;;;;;16.30;8.18;;;;;;;;;;4977444;28;20037;-85
2021/12/09 11:14:17;;;;;;;16.00;8.40;;;;;;;;;;4975618;28;20114;-85
2021/12/09 11:17:00;;;;;;;14.13;7.78;;;;;;;;;;4956327;28;20035;-84
2021/12/09 11:19:39;;;;;;;;;;;;;;;;;;4983554;28;20516;-85
2021/12/09 11:22:11;;;;;;;17.30;7.00;;;;;;;;;;4969630;28;19917;-85
2021/12/09 11:24:45;;;;;;;16.90;6.93;;;;;;;;;;4972856;28;20030;-87
2021/12/09 11:27:12;;;;;;;11.98;6.07;;;;;;;;;;4976482;28;20030;-86
2021/12/09 11:29:46;;;;;;;7.32;4.82;;;;;;;;;;4983294;28;20033;-87
2021/12/09 11:35:01;;;;;;;8.63;4.10;;;;;;;;;;4983164;28;20402;-85
2021/12/09 11:37:43;;;;;;;8.90;3.75;;;;;;;;;;4974330;28;20045;-86
2021/12/09 11:40:12;;;;;;;;;;;;;;;;;;4976276;28;20310;-86
2021/12/09 11:45:11;;;;;;;;;;;;;;;;;;4975621;28;20453;-86
2021/12/09 11:47:38;;;;;;;8.85;3.83;;;;;;;;;;4977154;28;19918;-85
2021/12/09 11:50:05;;;;;;;11.45;5.68;;;;;;;;;;4976189;28;20098;-88
2021/12/09 11:52:30;;;;;;;11.25;5.97;;;;;;;;;;4960939;28;20101;-85
2021/12/09 11:55:01;;;;;;;13.38;7.47;;;;;;;;;;4979093;28;20133;-87
2021/12/09 11:57:54;;;;;;;11.52;7.13;;;;;;;;;;4978005;28;20029;-86
2021/12/09 12:40:44;;;;;;;11.90;5.30;;;;;;;;;;4989645;28;20018;-86
2021/12/09 12:43:22;;;;;;;11.20;4.90;;;;;;;;;;4977307;28;20054;-87
2021/12/09 12:45:57;;;;;;;11.65;5.13;;;;;;;;;;4978740;28;20113;-85
2021/12/09 12:51:12;;;;;;;9.63;4.30;;;;;;;;;;4976840;28;20034;-86
2021/12/09 12:53:42;;;;;;;9.65;5.15;;;;;;;;;;4975024;28;20755;-85
2021/12/09 12:56:27;;;;;;;8.85;4.53;;;;;;;;;;4967132;28;20107;-86
2021/12/09 12:59:16;;;;;;;13.23;4.55;;;;;;;;;;4988568;28;20073;-87
2021/12/09 13:02:16;;;;;;;8.68;4.45;;;;;;;;;;4977955;28;20026;-86
2021/12/09 13:05:08;;;;;;;8.50;4.40;;;;;;;;;;4979260;28;20034;-86
2021/12/09 13:19:06;;;;;;;7.82;4.40;;;;;;;;;;4983777;28;20484;-85
2021/12/09 13:21:48;;;;;;;4.93;2.92;;;;;;;;;;4982011;28;20031;-85
2021/12/09 13:25:01;;;;;;;8.75;4.10;;;;;;;;;;4950987;28;20027;-85
2021/12/09 13:35:51;;;;;;;9.25;4.05;;;;;;;;;;4971790;28;20047;-86
2021/12/09 13:47:06;;;;;;;9.93;3.97;;;;;;;;;;4951021;28;20028;-84
2021/12/09 13:49:55;;;;;;;9.00;3.83;;;;;;;;;;4980260;28;20045;-86
2021/12/09 13:55:26;;;;;;;7.53;3.38;;;;;;;;;;4985483;28;20018;-85
2021/12/09 13:58:00;;;;;;;14.00;3.88;;;;;;;;;;4980581;28;20050;-87
2021/12/09 14:00:26;;;;;;;11.63;4.22;;;;;;;;;;4983841;28;20030;-87
2021/12/09 14:03:12;;;;;;;12.68;4.20;;;;;;;;;;4978380;28;20026;-86
2021/12/09 14:05:48;;;;;;;12.45;4.20;;;;;;;;;;4958426;28;20114;-86
2021/12/09 14:08:22;;;;;;;9.82;4.15;;;;;;;;;;4968168;28;20034;-85
2021/12/09 14:10:52;;;;;;;14.52;4.43;;;;;;;;;;4989205;28;20034;-88
2021/12/09 14:13:20;;;;;;;16.40;4.38;;;;;;;;;;4977459;28;20087;-85
2021/12/09 14:16:12;;;;;;;12.57;4.30;;;;;;;;;;4964128;28;20023;-85
2021/12/09 14:19:57;;;;;;;11.13;4.55;;;;;;;;;;4987633;28;20041;-85
2021/12/09 14:21:31;;;;;;;9.13;4.53;;;;;;;;;;4979442;28;20436;-86
2021/12/09 14:24:16;;;;;;;20.50;7.15;;;;;;;;;;4984846;28;20523;-84
2021/12/09 14:26:48;;;;;;;13.95;5.38;;;;;;;;;;4973903;28;20022;-85
2021/12/09 14:29:14;;;;;;;12.35;4.15;;;;;;;;;;4976196;28;20073;-87
2021/12/09 14:31:45;;;;;;;10.73;4.18;;;;;;;;;;4978081;28;20022;-85
2021/12/09 14:34:11;;;;;;;13.85;3.75;;;;;;;;;;4964783;28;20106;-84
2021/12/09 14:36:37;;;;;;;12.07;4.22;;;;;;;;;;4979742;28;20522;-88
2021/12/09 14:39:08;;;;;;;10.43;3.60;;;;;;;;;;4985080;28;20026;-87
2021/12/09 14:41:35;;;;;;;9.43;3.50;;;;;;;;;;4968644;28;20034;-86
2021/12/09 14:44:02;;;;;;;7.35;3.53;;;;;;;;;;4984444;28;20042;-86
2021/12/09 14:46:34;;;;;;;16.85;5.95;;;;;;;;;;4958439;28;20365;-86
2021/12/09 14:49:00;;;;;;;9.18;3.58;;;;;;;;;;4977168;28;20046;-85
2021/12/09 14:51:30;;;;;;;7.32;3.22;;;;;;;;;;4991247;28;20472;-84
2021/12/09 14:54:02;;;;;;;8.27;3.08;;;;;;;;;;4974221;28;20034;-84
2021/12/09 14:56:52;;;;;;;10.65;3.63;;;;;;;;;;4986211;28;20066;-85
2021/12/09 14:59:26;;;;;;;9.73;3.22;;;;;;;;;;4975510;28;20027;-84
2021/12/09 15:02:04;;;;;;;7.50;3.03;;;;;;;;;;4997806;28;20027;-85
2021/12/09 15:04:35;;;;;;;7.80;3.20;;;;;;;;;;4957463;28;20138;-87
2021/12/09 15:07:05;;;;;;;8.40;3.33;;;;;;;;;;4963102;28;20082;-83
2021/12/09 15:09:31;;;;;;;11.48;3.30;;;;;;;;;;4968874;28;20145;-84
2021/12/09 15:12:00;;;;;;;11.10;3.47;;;;;;;;;;4981771;28;20091;-84
2021/12/09 15:14:35;;;;;;;6.88;2.92;;;;;;;;;;4992042;28;20032;-85
2021/12/09 15:17:16;;;;;;;10.45;3.40;;;;;;;;;;4991210;28;20049;-85
2021/12/09 15:20:09;;;;;;;8.32;3.17;;;;;;;;;;4993379;28;20452;-83
2021/12/09 15:23:11;;;;;;;10.43;3.47;;;;;;;;;;4977840;28;20326;-83
2021/12/09 15:25:40;;;;;;;11.40;3.08;;;;;;;;;;4977542;28;20091;-83
2021/12/09 15:28:11;;;;;;;13.07;3.30;;;;;;;;;;4960640;28;20097;-85
2021/12/09 15:31:00;;;;;;;11.07;3.28;;;;;;;;;;4987254;28;20030;-84
2021/12/09 15:33:37;;;;;;;7.18;2.78;;;;;;;;;;4971645;28;20034;-86
2021/12/09 15:36:10;;;;;;;9.07;2.70;;;;;;;;;;4987250;28;20022;-85
2021/12/09 15:38:38;;;;;;;11.43;3.05;;;;;;;;;;4986099;28;20515;-86
2021/12/09 15:41:05;;;;;;;11.80;3.10;;;;;;;;;;4961751;28;20093;-88
2021/12/09 15:43:31;;;;;;;9.68;2.95;;;;;;;;;;4965722;28;20027;-86
2021/12/09 15:46:08;;;;;;;9.85;2.92;;;;;;;;;;4984168;28;20034;-86
2021/12/09 15:48:39;;;;;;;9.18;3.53;;;;;;;;;;4975958;28;20719;-86
2021/12/09 15:51:12;;;;;;;6.40;2.22;;;;;;;;;;4972637;28;20035;-87
2021/12/09 15:53:41;;;;;;;;;;;;;;;;;;4967189;28;20023;-87
2021/12/09 15:56:08;;;;;;;12.75;3.33;;;;;;;;;;4986649;28;19910;-86
2021/12/09 15:58:36;;;;;;;8.35;2.92;;;;;;;;;;4981283;28;20105;-86
2021/12/09 16:01:05;;;;;;;11.55;2.90;;;;;;;;;;4987302;28;20030;-86
2021/12/09 16:03:31;;;;;;;12.05;2.50;;;;;;;;;;4979486;28;20589;-87
2021/12/09 16:05:56;;;;;;;10.23;2.58;;;;;;;;;;4979006;28;20023;-86
2021/12/09 16:08:22;;;;;;;9.68;2.72;;;;;;;;;;4987416;28;20451;-85
2021/12/09 16:10:48;;;;;;;9.00;2.70;;;;;;;;;;4976324;28;20142;-86
2021/12/09 16:13:14;;;;;;;13.65;4.47;;;;;;;;;;4964625;28;20027;-86
2021/12/09 16:16:16;;;;;;;9.32;5.20;;;;;;;;;;4976133;28;20051;-87
2021/12/09 16:18:38;;;;;;;5.03;2.30;;;;;;;;;;4979652;28;20109;-85
2021/12/09 16:21:07;;;;;;;6.05;2.05;;;;;;;;;;4966369;28;20038;-87
2021/12/09 16:23:36;;;;;;;6.07;2.22;;;;;;;;;;4963160;28;20480;-85
2021/12/09 16:26:03;;;;;;;11.38;2.70;;;;;;;;;;4982053;28;20401;-86
2021/12/09 16:28:29;;;;;;;12.98;2.28;;;;;;;;;;4990976;28;20026;-86
2021/12/09 16:30:56;;;;;;;8.38;2.38;;;;;;;;;;4977471;28;20031;-86
2021/12/09 16:33:23;;;;;;;7.57;2.50;;;;;;;;;;4977119;28;20030;-86
2021/12/09 16:35:49;;;;;;;6.40;2.30;;;;;;;;;;4984520;28;20385;-86
2021/12/09 16:38:15;;;;;;;10.82;3.45;;;;;;;;;;4992296;28;20476;-85
2021/12/09 16:40:43;;;;;;;9.55;3.03;;;;;;;;;;4959568;28;20468;-86
2021/12/09 16:43:15;;;;;;;8.60;2.25;;;;;;;;;;4983256;28;20077;-86
2021/12/09 16:45:41;;;;;;;10.07;2.30;;;;;;;;;;4984109;28;20170;-85
2021/12/09 16:48:10;;;;;;;4.88;2.33;;;;;;;;;;4988845;28;20057;-86